sensor_id;sensor_type;location;lat;lon;timestamp;temperature;humidity
44729;DHT22;30457;53.590;9.922;2024-02-23T00:00:11;14.30;52.50
44729;DHT22;30457;53.590;9.922;2024-02-23T00:04:37;14.20;52.30
44729;DHT22;30457;53.590;9.922;2024-02-23T00:09:03;14.10;52.70
44729;DHT22;30457;53.590;9.922;2024-02-23T00:13:29;14.00;52.90
44729;DHT22;30457;53.590;9.922;2024-02-23T00:17:54;13.90;53.30
44729;DHT22;30457;53.590;9.922;2024-02-23T00:22:20;13.90;53.50
44729;DHT22;30457;53.590;9.922;2024-02-23T00:26:46;13.80;53.80
44729;DHT22;30457;53.590;9.922;2024-02-23T00:31:11;13.70;53.50
44729;DHT22;30457;53.590;9.922;2024-02-23T00:35:37;13.70;54.10
44729;DHT22;30457;53.590;9.922;2024-02-23T00:40:03;13.70;53.80
44729;DHT22;30457;53.590;9.922;2024-02-23T00:44:32;13.60;53.70
44729;DHT22;30457;53.590;9.922;2024-02-23T00:48:57;13.60;53.50
44729;DHT22;30457;53.590;9.922;2024-02-23T00:53:23;13.50;54.00
44729;DHT22;30457;53.590;9.922;2024-02-23T00:57:48;13.30;54.60
44729;DHT22;30457;53.590;9.922;2024-02-23T01:02:14;13.10;54.40
44729;DHT22;30457;53.590;9.922;2024-02-23T01:06:39;12.90;54.80
44729;DHT22;30457;53.590;9.922;2024-02-23T01:11:05;12.60;55.00
44729;DHT22;30457;53.590;9.922;2024-02-23T01:15:31;12.40;55.30
44729;DHT22;30457;53.590;9.922;2024-02-23T01:19:56;12.20;55.80
44729;DHT22;30457;53.590;9.922;2024-02-23T01:24:22;12.10;56.00
44729;DHT22;30457;53.590;9.922;2024-02-23T01:28:47;12.00;56.20
44729;DHT22;30457;53.590;9.922;2024-02-23T01:33:13;11.90;56.40
44729;DHT22;30457;53.590;9.922;2024-02-23T01:37:38;11.80;56.60
44729;DHT22;30457;53.590;9.922;2024-02-23T01:42:04;11.80;56.60
44729;DHT22;30457;53.590;9.922;2024-02-23T01:46:30;11.70;56.50
44729;DHT22;30457;53.590;9.922;2024-02-23T01:50:56;11.70;56.80
44729;DHT22;30457;53.590;9.922;2024-02-23T01:55:22;11.60;56.70
44729;DHT22;30457;53.590;9.922;2024-02-23T01:59:48;11.60;56.60
44729;DHT22;30457;53.590;9.922;2024-02-23T02:04:14;11.60;56.70
44729;DHT22;30457;53.590;9.922;2024-02-23T02:08:40;11.60;56.50
44729;DHT22;30457;53.590;9.922;2024-02-23T02:13:06;11.60;56.50
44729;DHT22;30457;53.590;9.922;2024-02-23T02:17:31;11.50;56.40
44729;DHT22;30457;53.590;9.922;2024-02-23T02:21:57;11.50;56.40
44729;DHT22;30457;53.590;9.922;2024-02-23T02:26:22;11.50;56.10
44729;DHT22;30457;53.590;9.922;2024-02-23T02:30:49;11.40;56.30
44729;DHT22;30457;53.590;9.922;2024-02-23T02:35:14;11.30;56.30
44729;DHT22;30457;53.590;9.922;2024-02-23T02:39:41;11.30;56.50
44729;DHT22;30457;53.590;9.922;2024-02-23T02:44:06;11.20;56.40
44729;DHT22;30457;53.590;9.922;2024-02-23T02:48:32;11.10;56.10
44729;DHT22;30457;53.590;9.922;2024-02-23T02:52:58;11.00;56.40
44729;DHT22;30457;53.590;9.922;2024-02-23T02:57:24;11.00;56.80
44729;DHT22;30457;53.590;9.922;2024-02-23T03:01:49;10.90;56.80
44729;DHT22;30457;53.590;9.922;2024-02-23T03:06:15;10.90;56.70
44729;DHT22;30457;53.590;9.922;2024-02-23T03:10:40;10.80;56.70
44729;DHT22;30457;53.590;9.922;2024-02-23T03:15:06;10.70;56.90
44729;DHT22;30457;53.590;9.922;2024-02-23T03:19:32;10.60;57.00
44729;DHT22;30457;53.590;9.922;2024-02-23T03:23:58;10.60;57.10
44729;DHT22;30457;53.590;9.922;2024-02-23T03:28:23;10.50;56.80
44729;DHT22;30457;53.590;9.922;2024-02-23T03:32:49;10.50;57.30
44729;DHT22;30457;53.590;9.922;2024-02-23T03:37:14;10.40;57.20
44729;DHT22;30457;53.590;9.922;2024-02-23T03:41:40;10.40;56.70
44729;DHT22;30457;53.590;9.922;2024-02-23T03:46:06;10.40;57.00
44729;DHT22;30457;53.590;9.922;2024-02-23T03:50:32;10.40;57.00
44729;DHT22;30457;53.590;9.922;2024-02-23T03:54:57;10.30;57.00
44729;DHT22;30457;53.590;9.922;2024-02-23T03:59:23;10.20;57.10
44729;DHT22;30457;53.590;9.922;2024-02-23T04:03:49;10.20;56.90
44729;DHT22;30457;53.590;9.922;2024-02-23T04:08:14;10.10;56.80
44729;DHT22;30457;53.590;9.922;2024-02-23T04:12:40;10.10;56.90
44729;DHT22;30457;53.590;9.922;2024-02-23T04:17:05;10.00;57.00
44729;DHT22;30457;53.590;9.922;2024-02-23T04:21:31;10.00;57.20
44729;DHT22;30457;53.590;9.922;2024-02-23T04:25:56;10.00;57.20
44729;DHT22;30457;53.590;9.922;2024-02-23T04:30:22;10.00;57.20
44729;DHT22;30457;53.590;9.922;2024-02-23T04:34:47;10.00;57.30
44729;DHT22;30457;53.590;9.922;2024-02-23T04:39:13;10.00;57.40
44729;DHT22;30457;53.590;9.922;2024-02-23T04:43:39;10.00;57.50
44729;DHT22;30457;53.590;9.922;2024-02-23T04:48:05;10.00;57.50
44729;DHT22;30457;53.590;9.922;2024-02-23T04:52:30;10.00;57.30
44729;DHT22;30457;53.590;9.922;2024-02-23T04:56:56;10.00;57.50
44729;DHT22;30457;53.590;9.922;2024-02-23T05:01:21;10.10;57.50
44729;DHT22;30457;53.590;9.922;2024-02-23T05:05:47;10.00;57.50
44729;DHT22;30457;53.590;9.922;2024-02-23T05:10:15;10.00;57.50
44729;DHT22;30457;53.590;9.922;2024-02-23T05:14:42;10.10;57.60
44729;DHT22;30457;53.590;9.922;2024-02-23T05:19:07;10.00;57.60
44729;DHT22;30457;53.590;9.922;2024-02-23T05:23:33;10.10;57.70
44729;DHT22;30457;53.590;9.922;2024-02-23T05:27:59;10.00;57.50
44729;DHT22;30457;53.590;9.922;2024-02-23T05:32:24;10.00;57.60
44729;DHT22;30457;53.590;9.922;2024-02-23T05:36:50;10.00;57.40
44729;DHT22;30457;53.590;9.922;2024-02-23T05:41:16;10.00;57.40
44729;DHT22;30457;53.590;9.922;2024-02-23T05:45:42;10.00;57.30
44729;DHT22;30457;53.590;9.922;2024-02-23T05:50:09;10.00;57.50
44729;DHT22;30457;53.590;9.922;2024-02-23T05:54:35;9.90;57.30
44729;DHT22;30457;53.590;9.922;2024-02-23T05:59:00;9.90;57.30
44729;DHT22;30457;53.590;9.922;2024-02-23T06:03:26;9.90;57.30
44729;DHT22;30457;53.590;9.922;2024-02-23T06:07:51;9.90;57.20
44729;DHT22;30457;53.590;9.922;2024-02-23T06:12:17;9.90;56.90
44729;DHT22;30457;53.590;9.922;2024-02-23T06:16:43;9.80;56.80
44729;DHT22;30457;53.590;9.922;2024-02-23T06:25:38;9.80;56.90
44729;DHT22;30457;53.590;9.922;2024-02-23T06:30:04;9.70;56.90
44729;DHT22;30457;53.590;9.922;2024-02-23T06:34:30;9.80;56.90
44729;DHT22;30457;53.590;9.922;2024-02-23T06:38:56;9.70;56.80
44729;DHT22;30457;53.590;9.922;2024-02-23T06:43:22;9.70;56.90
44729;DHT22;30457;53.590;9.922;2024-02-23T06:47:47;9.70;56.80
44729;DHT22;30457;53.590;9.922;2024-02-23T06:52:13;9.70;56.80
44729;DHT22;30457;53.590;9.922;2024-02-23T06:56:39;9.70;57.00
44729;DHT22;30457;53.590;9.922;2024-02-23T07:01:05;9.70;57.00
44729;DHT22;30457;53.590;9.922;2024-02-23T07:05:32;9.70;57.10
44729;DHT22;30457;53.590;9.922;2024-02-23T07:09:57;9.70;57.80
44729;DHT22;30457;53.590;9.922;2024-02-23T07:14:23;9.60;57.20
44729;DHT22;30457;53.590;9.922;2024-02-23T07:18:48;9.70;57.20
44729;DHT22;30457;53.590;9.922;2024-02-23T07:23:14;9.70;57.20
44729;DHT22;30457;53.590;9.922;2024-02-23T07:27:41;9.70;57.20
44729;DHT22;30457;53.590;9.922;2024-02-23T07:32:07;9.70;57.20
44729;DHT22;30457;53.590;9.922;2024-02-23T07:36:32;9.70;57.30
44729;DHT22;30457;53.590;9.922;2024-02-23T07:40:58;9.70;57.40
44729;DHT22;30457;53.590;9.922;2024-02-23T07:45:23;9.70;57.30
44729;DHT22;30457;53.590;9.922;2024-02-23T07:49:49;9.70;57.40
44729;DHT22;30457;53.590;9.922;2024-02-23T07:54:15;9.70;57.50
44729;DHT22;30457;53.590;9.922;2024-02-23T07:58:40;9.70;57.60
44729;DHT22;30457;53.590;9.922;2024-02-23T08:03:06;9.70;57.80
44729;DHT22;30457;53.590;9.922;2024-02-23T08:07:33;9.80;57.90
44729;DHT22;30457;53.590;9.922;2024-02-23T08:11:58;9.80;57.80
44729;DHT22;30457;53.590;9.922;2024-02-23T08:16:24;9.90;57.90
44729;DHT22;30457;53.590;9.922;2024-02-23T08:20:50;10.00;57.90
44729;DHT22;30457;53.590;9.922;2024-02-23T08:25:16;10.10;57.60
44729;DHT22;30457;53.590;9.922;2024-02-23T08:29:41;10.20;57.60
44729;DHT22;30457;53.590;9.922;2024-02-23T08:34:07;10.30;57.50
44729;DHT22;30457;53.590;9.922;2024-02-23T08:38:33;10.40;57.30
44729;DHT22;30457;53.590;9.922;2024-02-23T08:42:58;10.50;57.00
44729;DHT22;30457;53.590;9.922;2024-02-23T08:47:24;10.60;56.70
44729;DHT22;30457;53.590;9.922;2024-02-23T08:51:50;10.70;56.50
44729;DHT22;30457;53.590;9.922;2024-02-23T08:56:15;10.70;56.20
44729;DHT22;30457;53.590;9.922;2024-02-23T09:00:41;10.80;55.90
44729;DHT22;30457;53.590;9.922;2024-02-23T09:05:07;10.70;55.70
44729;DHT22;30457;53.590;9.922;2024-02-23T09:09:33;10.80;55.50
44729;DHT22;30457;53.590;9.922;2024-02-23T09:13:59;10.80;55.20
44729;DHT22;30457;53.590;9.922;2024-02-23T09:18:24;10.80;55.70
44729;DHT22;30457;53.590;9.922;2024-02-23T09:22:50;10.90;55.90
44729;DHT22;30457;53.590;9.922;2024-02-23T09:27:15;11.00;55.60
44729;DHT22;30457;53.590;9.922;2024-02-23T09:31:41;11.00;55.40
44729;DHT22;30457;53.590;9.922;2024-02-23T09:36:07;11.10;55.50
44729;DHT22;30457;53.590;9.922;2024-02-23T09:40:32;11.20;55.20
44729;DHT22;30457;53.590;9.922;2024-02-23T09:44:59;11.20;54.70
44729;DHT22;30457;53.590;9.922;2024-02-23T09:49:25;11.30;55.00
44729;DHT22;30457;53.590;9.922;2024-02-23T09:53:50;11.30;55.10
44729;DHT22;30457;53.590;9.922;2024-02-23T09:58:20;11.40;55.00
44729;DHT22;30457;53.590;9.922;2024-02-23T10:02:47;11.40;54.80
44729;DHT22;30457;53.590;9.922;2024-02-23T10:07:15;11.50;54.90
44729;DHT22;30457;53.590;9.922;2024-02-23T10:11:41;11.60;54.60
44729;DHT22;30457;53.590;9.922;2024-02-23T10:16:07;11.60;54.00
44729;DHT22;30457;53.590;9.922;2024-02-23T10:20:32;11.70;54.70
44729;DHT22;30457;53.590;9.922;2024-02-23T10:24:59;11.70;54.60
44729;DHT22;30457;53.590;9.922;2024-02-23T10:29:25;11.80;54.70
44729;DHT22;30457;53.590;9.922;2024-02-23T10:33:51;11.90;54.40
44729;DHT22;30457;53.590;9.922;2024-02-23T10:38:18;12.00;54.00
44729;DHT22;30457;53.590;9.922;2024-02-23T10:42:45;12.10;54.10
44729;DHT22;30457;53.590;9.922;2024-02-23T10:47:13;12.20;53.60
44729;DHT22;30457;53.590;9.922;2024-02-23T10:51:39;12.30;53.70
44729;DHT22;30457;53.590;9.922;2024-02-23T10:56:07;12.30;54.00
44729;DHT22;30457;53.590;9.922;2024-02-23T11:00:32;12.40;53.50
44729;DHT22;30457;53.590;9.922;2024-02-23T11:04:59;12.40;53.40
44729;DHT22;30457;53.590;9.922;2024-02-23T11:09:25;12.50;53.50
44729;DHT22;30457;53.590;9.922;2024-02-23T11:13:55;12.50;53.40
44729;DHT22;30457;53.590;9.922;2024-02-23T11:18:23;12.50;52.70
44729;DHT22;30457;53.590;9.922;2024-02-23T11:22:52;12.60;53.00
44729;DHT22;30457;53.590;9.922;2024-02-23T11:27:24;12.60;52.70
44729;DHT22;30457;53.590;9.922;2024-02-23T11:31:51;12.70;52.50
44729;DHT22;30457;53.590;9.922;2024-02-23T11:36:31;12.70;52.60
44729;DHT22;30457;53.590;9.922;2024-02-23T11:40:57;12.70;51.80
44729;DHT22;30457;53.590;9.922;2024-02-23T11:45:28;12.70;52.20
44729;DHT22;30457;53.590;9.922;2024-02-23T11:49:55;12.70;52.20
44729;DHT22;30457;53.590;9.922;2024-02-23T11:54:21;12.80;52.40
44729;DHT22;30457;53.590;9.922;2024-02-23T11:58:47;12.90;52.30
44729;DHT22;30457;53.590;9.922;2024-02-23T12:03:13;12.90;52.10
44729;DHT22;30457;53.590;9.922;2024-02-23T12:07:38;12.90;51.80
44729;DHT22;30457;53.590;9.922;2024-02-23T12:12:04;13.00;51.60
44729;DHT22;30457;53.590;9.922;2024-02-23T12:16:30;13.00;51.40
44729;DHT22;30457;53.590;9.922;2024-02-23T12:20:59;13.00;50.80
44729;DHT22;30457;53.590;9.922;2024-02-23T12:25:26;13.00;51.70
44729;DHT22;30457;53.590;9.922;2024-02-23T12:29:55;13.10;50.80
44729;DHT22;30457;53.590;9.922;2024-02-23T12:34:21;13.00;50.80
44729;DHT22;30457;53.590;9.922;2024-02-23T12:38:46;13.00;50.60
44729;DHT22;30457;53.590;9.922;2024-02-23T12:43:12;13.00;50.60
44729;DHT22;30457;53.590;9.922;2024-02-23T12:47:37;13.00;50.20
44729;DHT22;30457;53.590;9.922;2024-02-23T12:52:04;13.00;50.70
44729;DHT22;30457;53.590;9.922;2024-02-23T12:56:30;13.00;50.90
44729;DHT22;30457;53.590;9.922;2024-02-23T13:00:56;13.00;50.70
44729;DHT22;30457;53.590;9.922;2024-02-23T13:05:22;13.00;50.50
44729;DHT22;30457;53.590;9.922;2024-02-23T13:09:48;13.10;50.30
44729;DHT22;30457;53.590;9.922;2024-02-23T13:14:13;13.10;50.30
44729;DHT22;30457;53.590;9.922;2024-02-23T13:18:41;13.10;49.90
44729;DHT22;30457;53.590;9.922;2024-02-23T13:23:07;13.10;50.20
44729;DHT22;30457;53.590;9.922;2024-02-23T13:27:33;13.20;49.80
44729;DHT22;30457;53.590;9.922;2024-02-23T13:32:02;13.20;49.60
44729;DHT22;30457;53.590;9.922;2024-02-23T13:36:27;13.20;49.70
44729;DHT22;30457;53.590;9.922;2024-02-23T13:40:53;13.20;49.70
44729;DHT22;30457;53.590;9.922;2024-02-23T13:45:19;13.20;49.50
44729;DHT22;30457;53.590;9.922;2024-02-23T13:49:44;13.20;49.70
44729;DHT22;30457;53.590;9.922;2024-02-23T13:54:11;13.10;49.50
44729;DHT22;30457;53.590;9.922;2024-02-23T13:58:36;13.10;49.40
44729;DHT22;30457;53.590;9.922;2024-02-23T14:03:03;13.00;49.40
44729;DHT22;30457;53.590;9.922;2024-02-23T14:07:28;13.10;49.30
44729;DHT22;30457;53.590;9.922;2024-02-23T14:11:54;13.00;49.40
44729;DHT22;30457;53.590;9.922;2024-02-23T14:16:20;13.00;49.60
44729;DHT22;30457;53.590;9.922;2024-02-23T14:20:45;13.00;49.70
44729;DHT22;30457;53.590;9.922;2024-02-23T14:25:11;13.10;49.90
44729;DHT22;30457;53.590;9.922;2024-02-23T14:29:36;13.20;49.90
44729;DHT22;30457;53.590;9.922;2024-02-23T14:34:02;13.20;49.70
44729;DHT22;30457;53.590;9.922;2024-02-23T14:38:27;13.30;49.40
44729;DHT22;30457;53.590;9.922;2024-02-23T14:42:53;13.30;49.60
44729;DHT22;30457;53.590;9.922;2024-02-23T14:47:18;13.30;49.50
44729;DHT22;30457;53.590;9.922;2024-02-23T14:51:44;13.40;49.40
44729;DHT22;30457;53.590;9.922;2024-02-23T14:56:11;13.50;49.10
44729;DHT22;30457;53.590;9.922;2024-02-23T15:00:36;13.40;48.90
44729;DHT22;30457;53.590;9.922;2024-02-23T15:05:02;13.40;48.70
44729;DHT22;30457;53.590;9.922;2024-02-23T15:09:27;13.40;48.90
44729;DHT22;30457;53.590;9.922;2024-02-23T15:13:53;13.40;48.90
44729;DHT22;30457;53.590;9.922;2024-02-23T15:18:22;13.40;49.00
44729;DHT22;30457;53.590;9.922;2024-02-23T15:22:48;13.40;49.10
44729;DHT22;30457;53.590;9.922;2024-02-23T15:27:18;13.40;49.00
44729;DHT22;30457;53.590;9.922;2024-02-23T15:31:44;13.40;48.80
44729;DHT22;30457;53.590;9.922;2024-02-23T15:36:10;13.40;49.20
44729;DHT22;30457;53.590;9.922;2024-02-23T15:40:35;13.40;49.00
44729;DHT22;30457;53.590;9.922;2024-02-23T15:45:04;13.30;48.70
44729;DHT22;30457;53.590;9.922;2024-02-23T15:49:32;13.30;48.70
44729;DHT22;30457;53.590;9.922;2024-02-23T15:53:57;13.30;48.70
44729;DHT22;30457;53.590;9.922;2024-02-23T15:58:23;13.30;48.90
44729;DHT22;30457;53.590;9.922;2024-02-23T16:02:49;13.30;49.10
44729;DHT22;30457;53.590;9.922;2024-02-23T16:07:15;13.20;49.00
44729;DHT22;30457;53.590;9.922;2024-02-23T16:11:45;13.30;48.70
44729;DHT22;30457;53.590;9.922;2024-02-23T16:16:13;13.20;48.60
44729;DHT22;30457;53.590;9.922;2024-02-23T16:20:39;13.20;48.80
44729;DHT22;30457;53.590;9.922;2024-02-23T16:25:05;13.20;48.80
44729;DHT22;30457;53.590;9.922;2024-02-23T16:29:31;13.20;48.80
44729;DHT22;30457;53.590;9.922;2024-02-23T16:33:56;13.20;48.80
44729;DHT22;30457;53.590;9.922;2024-02-23T16:38:23;13.20;48.80
44729;DHT22;30457;53.590;9.922;2024-02-23T16:42:49;13.10;48.90
44729;DHT22;30457;53.590;9.922;2024-02-23T16:47:15;13.10;49.10
44729;DHT22;30457;53.590;9.922;2024-02-23T16:51:41;13.10;49.10
44729;DHT22;30457;53.590;9.922;2024-02-23T16:56:08;13.00;49.10
44729;DHT22;30457;53.590;9.922;2024-02-23T17:00:34;13.00;49.20
44729;DHT22;30457;53.590;9.922;2024-02-23T17:04:59;13.00;49.40
44729;DHT22;30457;53.590;9.922;2024-02-23T17:09:26;13.00;49.70
44729;DHT22;30457;53.590;9.922;2024-02-23T17:13:51;13.00;50.70
44729;DHT22;30457;53.590;9.922;2024-02-23T17:18:17;12.90;51.40
44729;DHT22;30457;53.590;9.922;2024-02-23T17:22:43;12.70;51.70
44729;DHT22;30457;53.590;9.922;2024-02-23T17:27:09;12.60;52.20
44729;DHT22;30457;53.590;9.922;2024-02-23T17:31:35;12.40;52.40
44729;DHT22;30457;53.590;9.922;2024-02-23T17:36:01;12.30;52.70
44729;DHT22;30457;53.590;9.922;2024-02-23T17:40:28;12.10;53.00
44729;DHT22;30457;53.590;9.922;2024-02-23T17:44:53;12.00;53.20
44729;DHT22;30457;53.590;9.922;2024-02-23T17:49:19;11.90;53.30
44729;DHT22;30457;53.590;9.922;2024-02-23T17:53:45;11.90;53.40
44729;DHT22;30457;53.590;9.922;2024-02-23T17:58:10;11.80;53.60
44729;DHT22;30457;53.590;9.922;2024-02-23T18:02:36;11.70;53.70
44729;DHT22;30457;53.590;9.922;2024-02-23T18:07:01;11.70;53.80
44729;DHT22;30457;53.590;9.922;2024-02-23T18:11:27;11.60;54.00
44729;DHT22;30457;53.590;9.922;2024-02-23T18:15:53;11.50;54.00
44729;DHT22;30457;53.590;9.922;2024-02-23T18:20:18;11.40;54.20
44729;DHT22;30457;53.590;9.922;2024-02-23T18:24:45;11.40;54.30
44729;DHT22;30457;53.590;9.922;2024-02-23T18:29:10;11.30;54.40
44729;DHT22;30457;53.590;9.922;2024-02-23T18:33:36;11.30;54.50
44729;DHT22;30457;53.590;9.922;2024-02-23T18:38:01;11.30;54.50
44729;DHT22;30457;53.590;9.922;2024-02-23T18:42:27;11.30;54.60
44729;DHT22;30457;53.590;9.922;2024-02-23T18:46:53;11.20;54.50
44729;DHT22;30457;53.590;9.922;2024-02-23T18:51:19;11.20;54.40
44729;DHT22;30457;53.590;9.922;2024-02-23T18:55:46;11.20;54.20
44729;DHT22;30457;53.590;9.922;2024-02-23T19:00:12;11.20;54.30
44729;DHT22;30457;53.590;9.922;2024-02-23T19:04:38;11.20;54.20
44729;DHT22;30457;53.590;9.922;2024-02-23T19:09:04;11.20;54.20
44729;DHT22;30457;53.590;9.922;2024-02-23T19:13:32;11.10;54.20
44729;DHT22;30457;53.590;9.922;2024-02-23T19:17:58;11.10;54.00
44729;DHT22;30457;53.590;9.922;2024-02-23T19:22:23;11.10;54.10
44729;DHT22;30457;53.590;9.922;2024-02-23T19:26:49;11.10;54.20
44729;DHT22;30457;53.590;9.922;2024-02-23T19:31:15;11.00;54.10
44729;DHT22;30457;53.590;9.922;2024-02-23T19:35:41;11.00;54.20
44729;DHT22;30457;53.590;9.922;2024-02-23T19:40:07;10.90;54.20
44729;DHT22;30457;53.590;9.922;2024-02-23T19:44:36;10.90;54.20
44729;DHT22;30457;53.590;9.922;2024-02-23T19:49:02;10.90;54.20
44729;DHT22;30457;53.590;9.922;2024-02-23T19:53:27;10.80;54.30
44729;DHT22;30457;53.590;9.922;2024-02-23T19:57:53;10.80;54.30
44729;DHT22;30457;53.590;9.922;2024-02-23T20:02:20;10.80;54.40
44729;DHT22;30457;53.590;9.922;2024-02-23T20:06:45;10.80;54.40
44729;DHT22;30457;53.590;9.922;2024-02-23T20:11:11;10.70;54.50
44729;DHT22;30457;53.590;9.922;2024-02-23T20:15:36;10.70;54.60
44729;DHT22;30457;53.590;9.922;2024-02-23T20:20:02;10.70;54.60
44729;DHT22;30457;53.590;9.922;2024-02-23T20:24:29;10.60;54.60
44729;DHT22;30457;53.590;9.922;2024-02-23T20:28:54;10.60;54.60
44729;DHT22;30457;53.590;9.922;2024-02-23T20:33:20;10.50;54.50
44729;DHT22;30457;53.590;9.922;2024-02-23T20:37:45;10.50;54.50
44729;DHT22;30457;53.590;9.922;2024-02-23T20:42:11;10.40;54.50
44729;DHT22;30457;53.590;9.922;2024-02-23T20:46:36;10.40;54.60
44729;DHT22;30457;53.590;9.922;2024-02-23T20:51:02;10.30;54.60
44729;DHT22;30457;53.590;9.922;2024-02-23T20:55:30;10.30;54.70
44729;DHT22;30457;53.590;9.922;2024-02-23T20:59:56;10.20;54.70
44729;DHT22;30457;53.590;9.922;2024-02-23T21:04:22;10.10;55.00
44729;DHT22;30457;53.590;9.922;2024-02-23T21:08:48;10.10;55.20
44729;DHT22;30457;53.590;9.922;2024-02-23T21:13:14;10.10;55.30
44729;DHT22;30457;53.590;9.922;2024-02-23T21:17:39;10.10;55.40
44729;DHT22;30457;53.590;9.922;2024-02-23T21:22:05;10.10;55.50
44729;DHT22;30457;53.590;9.922;2024-02-23T21:26:30;10.00;55.40
44729;DHT22;30457;53.590;9.922;2024-02-23T21:30:56;10.00;55.50
44729;DHT22;30457;53.590;9.922;2024-02-23T21:35:28;10.00;55.50
44729;DHT22;30457;53.590;9.922;2024-02-23T21:39:55;9.90;55.40
44729;DHT22;30457;53.590;9.922;2024-02-23T21:44:21;9.90;55.50
44729;DHT22;30457;53.590;9.922;2024-02-23T21:48:46;9.80;55.60
44729;DHT22;30457;53.590;9.922;2024-02-23T21:53:13;9.80;55.60
44729;DHT22;30457;53.590;9.922;2024-02-23T21:57:39;9.80;55.60
44729;DHT22;30457;53.590;9.922;2024-02-23T22:02:04;9.80;55.60
44729;DHT22;30457;53.590;9.922;2024-02-23T22:06:30;9.70;55.70
44729;DHT22;30457;53.590;9.922;2024-02-23T22:10:56;9.70;55.80
44729;DHT22;30457;53.590;9.922;2024-02-23T22:15:23;9.70;55.90
44729;DHT22;30457;53.590;9.922;2024-02-23T22:19:49;9.70;55.90
44729;DHT22;30457;53.590;9.922;2024-02-23T22:24:14;9.70;55.80
44729;DHT22;30457;53.590;9.922;2024-02-23T22:28:41;9.70;55.70
44729;DHT22;30457;53.590;9.922;2024-02-23T22:33:07;9.80;55.80
44729;DHT22;30457;53.590;9.922;2024-02-23T22:37:33;9.90;55.40
44729;DHT22;30457;53.590;9.922;2024-02-23T22:41:58;9.90;56.00
44729;DHT22;30457;53.590;9.922;2024-02-23T22:46:26;10.00;55.90
44729;DHT22;30457;53.590;9.922;2024-02-23T22:50:52;10.00;55.90
44729;DHT22;30457;53.590;9.922;2024-02-23T22:55:17;10.00;55.80
44729;DHT22;30457;53.590;9.922;2024-02-23T22:59:43;10.10;55.70
44729;DHT22;30457;53.590;9.922;2024-02-23T23:04:09;10.10;55.60
44729;DHT22;30457;53.590;9.922;2024-02-23T23:08:34;10.10;55.40
44729;DHT22;30457;53.590;9.922;2024-02-23T23:13:00;10.10;55.30
44729;DHT22;30457;53.590;9.922;2024-02-23T23:17:25;10.10;55.20
44729;DHT22;30457;53.590;9.922;2024-02-23T23:21:51;10.10;55.20
44729;DHT22;30457;53.590;9.922;2024-02-23T23:26:18;10.10;55.20
44729;DHT22;30457;53.590;9.922;2024-02-23T23:30:44;10.10;55.10
44729;DHT22;30457;53.590;9.922;2024-02-23T23:35:09;10.10;55.10
44729;DHT22;30457;53.590;9.922;2024-02-23T23:39:35;10.10;55.00
44729;DHT22;30457;53.590;9.922;2024-02-23T23:44:01;10.00;54.90
44729;DHT22;30457;53.590;9.922;2024-02-23T23:48:26;10.00;54.90
44729;DHT22;30457;53.590;9.922;2024-02-23T23:52:52;9.90;54.90
44729;DHT22;30457;53.590;9.922;2024-02-23T23:57:18;9.80;54.90
